Time;durP1;ratioP1;P1;durP2;ratioP2;P2;SDS_P1;SDS_P2;PMS_P1;PMS_P2;Temp;Humidity;BMP_temperature;BMP_pressure;BME280_temperature;BME280_humidity;BME280_pressure;Samples;Min_cycle;Max_cycle;Signal;HPM_P1;HPM_P2
2023/04/28 00:01:35;;;;;;;2.20;1.40;;;17.10;28.80;;;;;;5011546;28;20181;-70
2023/04/28 00:04:01;;;;;;;2.20;1.30;;;17.00;28.40;;;;;;5010654;28;20436;-70
2023/04/28 00:06:27;;;;;;;2.30;1.40;;;17.10;29.20;;;;;;5010603;28;20320;-70
2023/04/28 00:08:52;;;;;;;2.27;1.50;;;17.40;28.00;;;;;;5004147;28;20242;-70
2023/04/28 00:11:18;;;;;;;3.07;1.70;;;17.70;27.50;;;;;;5007332;28;21018;-70
2023/04/28 00:13:43;;;;;;;1.90;1.10;;;17.90;28.60;;;;;;5008146;28;20173;-70
2023/04/28 00:16:09;;;;;;;2.10;1.27;;;18.00;30.20;;;;;;5010684;28;20177;-70
2023/04/28 00:18:35;;;;;;;2.20;1.40;;;18.10;30.30;;;;;;5010429;28;20511;-70
2023/04/28 00:21:00;;;;;;;2.30;1.40;;;18.00;31.60;;;;;;5004475;28;20177;-69
2023/04/28 00:23:26;;;;;;;2.17;1.37;;;17.90;31.30;;;;;;5010562;28;20264;-69
2023/04/28 00:25:53;;;;;;;2.17;1.30;;;17.80;31.50;;;;;;5016308;28;20243;-69
2023/04/28 00:28:18;;;;;;;2.87;1.40;;;17.70;32.80;;;;;;5008739;28;20228;-69
2023/04/28 00:30:44;;;;;;;3.40;1.43;;;17.30;33.40;;;;;;5010302;28;20457;-69
2023/04/28 00:33:09;;;;;;;2.37;1.47;;;16.80;33.90;;;;;;5006990;28;20205;-70
2023/04/28 00:35:35;;;;;;;2.13;1.43;;;16.80;34.50;;;;;;5011755;28;20173;-69
2023/04/28 00:38:00;;;;;;;2.43;1.53;;;16.80;34.20;;;;;;5011550;28;20193;-70
2023/04/28 00:40:33;;;;;;;2.70;1.80;;;16.80;34.30;;;;;;5011166;28;20174;-70
2023/04/28 00:42:59;;;;;;;2.20;1.20;;;16.70;33.90;;;;;;5004510;28;20205;-69
2023/04/28 00:45:24;;;;;;;2.30;1.40;;;16.70;34.70;;;;;;5011272;28;20833;-69
2023/04/28 00:47:50;;;;;;;3.33;1.50;;;16.70;34.90;;;;;;5011250;28;20272;-69
2023/04/28 00:50:16;;;;;;;2.20;1.23;;;16.70;34.40;;;;;;5011597;28;20520;-71
2023/04/28 00:52:42;;;;;;;7.10;1.87;;;16.50;34.40;;;;;;5009251;28;20256;-70
2023/04/28 00:55:08;;;;;;;2.67;1.50;;;16.30;34.80;;;;;;5012579;28;20407;-70
2023/04/28 00:57:35;;;;;;;2.30;1.30;;;16.10;35.40;;;;;;5015079;28;20441;-70
2023/04/28 01:00:02;;;;;;;2.57;1.50;;;16.20;36.00;;;;;;5014653;28;20969;-70
2023/04/28 01:02:28;;;;;;;2.40;1.40;;;16.30;35.80;;;;;;5012204;28;20436;-69
2023/04/28 01:04:55;;;;;;;2.60;1.60;;;15.80;37.40;;;;;;5011811;28;20528;-70
2023/04/28 01:07:21;;;;;;;2.70;1.60;;;15.90;37.90;;;;;;5013659;28;20458;-70
2023/04/28 01:09:47;;;;;;;2.87;1.63;;;16.00;36.60;;;;;;5014579;28;20500;-70
2023/04/28 01:12:12;;;;;;;14.33;2.43;;;16.10;36.70;;;;;;5030103;28;20200;-70
2023/04/28 01:14:38;;;;;;;4.23;1.63;;;16.20;35.90;;;;;;5005884;28;20653;-70
2023/04/28 01:17:05;;;;;;;2.50;1.47;;;16.20;35.90;;;;;;5013541;28;20240;-69
2023/04/28 01:19:30;;;;;;;2.40;1.40;;;15.90;36.40;;;;;;5012852;28;20307;-71
2023/04/28 01:21:56;;;;;;;2.50;1.50;;;15.70;36.70;;;;;;5013820;28;20514;-70
2023/04/28 01:24:22;;;;;;;2.70;1.50;;;15.60;37.60;;;;;;5011145;28;20187;-70
2023/04/28 01:26:47;;;;;;;2.60;1.63;;;15.60;37.60;;;;;;5009057;28;20586;-69
2023/04/28 01:29:13;;;;;;;2.50;1.50;;;15.50;37.50;;;;;;5007269;28;20217;-69
2023/04/28 01:31:39;;;;;;;2.30;1.30;;;15.40;38.00;;;;;;5011630;28;20303;-71
2023/04/28 01:34:04;;;;;;;2.53;1.57;;;15.30;37.30;;;;;;5025351;28;20217;-69
2023/04/28 01:36:30;;;;;;;2.40;1.37;;;15.60;37.60;;;;;;5008972;28;20200;-69
2023/04/28 01:38:56;;;;;;;2.60;1.60;;;15.80;37.20;;;;;;5008092;28;20173;-69
2023/04/28 01:41:21;;;;;;;2.40;1.40;;;16.10;38.00;;;;;;5012734;28;20570;-69
2023/04/28 01:43:47;;;;;;;2.30;1.30;;;16.40;36.70;;;;;;5010451;28;20230;-72
2023/04/28 01:46:12;;;;;;;2.97;1.93;;;16.50;36.90;;;;;;5007076;28;20180;-69
2023/04/28 01:48:38;;;;;;;2.40;1.40;;;16.50;37.00;;;;;;5012315;28;20598;-69
2023/04/28 01:51:04;;;;;;;2.90;1.70;;;16.50;36.50;;;;;;5015042;28;20290;-69
2023/04/28 01:53:30;;;;;;;2.80;1.70;;;16.50;35.90;;;;;;5013516;28;20181;-69
2023/04/28 01:55:57;;;;;;;4.73;1.63;;;16.30;35.20;;;;;;5013271;28;20434;-70
2023/04/28 01:58:23;;;;;;;4.10;1.53;;;16.40;37.20;;;;;;5012707;28;20664;-70
2023/04/28 02:00:49;;;;;;;2.33;1.30;;;16.50;36.60;;;;;;5005765;28;20507;-69
2023/04/28 02:03:14;;;;;;;2.73;1.57;;;16.50;35.40;;;;;;5007660;28;20427;-70
2023/04/28 02:05:40;;;;;;;2.50;1.40;;;16.20;35.60;;;;;;5013345;28;20202;-69
2023/04/28 02:08:06;;;;;;;4.00;1.90;;;16.20;35.80;;;;;;5008868;28;20248;-70
2023/04/28 02:10:31;;;;;;;2.90;1.40;;;16.20;35.60;;;;;;5012721;28;20566;-69
2023/04/28 02:12:57;;;;;;;5.70;1.70;;;16.30;36.00;;;;;;5012748;28;20378;-71
2023/04/28 02:15:22;;;;;;;2.47;1.40;;;16.40;36.60;;;;;;5012956;28;20264;-70
2023/04/28 02:17:48;;;;;;;2.30;1.20;;;16.50;37.40;;;;;;5011136;28;20208;-70
2023/04/28 02:20:14;;;;;;;2.40;1.40;;;16.70;34.60;;;;;;5006679;28;20174;-72
2023/04/28 02:22:40;;;;;;;2.90;1.97;;;16.80;33.20;;;;;;5011791;28;20267;-69
2023/04/28 02:25:06;;;;;;;2.20;1.23;;;16.70;34.90;;;;;;5013134;28;20184;-69
2023/04/28 02:27:33;;;;;;;2.90;1.60;;;16.70;34.30;;;;;;5011451;28;20487;-71
2023/04/28 02:29:59;;;;;;;2.70;1.70;;;16.70;34.30;;;;;;5001949;28;20983;-70
2023/04/28 02:32:25;;;;;;;2.40;1.30;;;16.70;33.40;;;;;;5012675;28;20460;-70
2023/04/28 02:34:54;;;;;;;2.60;1.70;;;16.60;35.20;;;;;;5012141;28;20169;-70
2023/04/28 02:37:20;;;;;;;2.30;1.23;;;16.50;33.40;;;;;;5005525;28;20443;-69
2023/04/28 02:39:46;;;;;;;2.40;1.40;;;16.60;34.60;;;;;;5008363;28;20439;-70
2023/04/28 02:42:11;;;;;;;2.30;1.40;;;16.30;34.10;;;;;;5012249;28;20431;-69
2023/04/28 02:44:37;;;;;;;2.90;1.70;;;15.90;34.70;;;;;;5012702;28;20261;-69
2023/04/28 02:47:03;;;;;;;2.30;1.30;;;16.10;34.30;;;;;;5012258;28;20562;-70
2023/04/28 02:49:28;;;;;;;2.30;1.30;;;16.10;34.70;;;;;;5012314;28;20228;-69
2023/04/28 02:51:54;;;;;;;3.23;1.93;;;16.30;34.70;;;;;;5006708;28;20198;-69
2023/04/28 02:54:26;;;;;;;2.40;1.50;;;16.20;34.10;;;;;;5012107;28;20718;-70
2023/04/28 02:56:55;;;;;;;2.47;1.53;;;15.80;35.20;;;;;;5012091;28;20201;-69
2023/04/28 02:59:22;;;;;;;3.27;1.80;;;15.90;35.60;;;;;;5011758;28;20509;-69
2023/04/28 03:01:48;;;;;;;2.20;1.30;;;15.90;35.30;;;;;;5007780;28;20434;-70
2023/04/28 03:04:14;;;;;;;2.30;1.33;;;15.80;36.40;;;;;;5011612;28;20453;-70
2023/04/28 03:06:40;;;;;;;2.93;1.73;;;15.90;36.60;;;;;;5012237;28;20465;-71
2023/04/28 03:09:06;;;;;;;2.40;1.37;;;16.20;35.50;;;;;;5012115;28;20451;-69
2023/04/28 03:11:32;;;;;;;2.30;1.30;;;16.40;34.90;;;;;;5008351;28;20471;-69
2023/04/28 03:13:57;;;;;;;2.60;1.50;;;16.30;36.50;;;;;;5011270;28;20432;-70
2023/04/28 03:16:23;;;;;;;2.40;1.40;;;16.40;35.30;;;;;;5011862;28;20211;-69
2023/04/28 03:18:48;;;;;;;2.40;1.40;;;16.40;34.30;;;;;;5013858;28;20187;-69
2023/04/28 03:21:14;;;;;;;3.30;2.00;;;16.40;34.60;;;;;;5012003;28;20175;-70
2023/04/28 03:23:40;;;;;;;2.77;1.50;;;16.50;34.10;;;;;;5007166;28;20671;-70
2023/04/28 03:26:06;;;;;;;2.53;1.43;;;16.40;35.10;;;;;;5010792;28;20207;-70
2023/04/28 03:28:32;;;;;;;2.67;1.60;;;16.30;34.90;;;;;;5011658;28;20196;-71
2023/04/28 03:30:57;;;;;;;2.30;1.30;;;15.60;36.80;;;;;;5011559;28;20435;-69
2023/04/28 03:33:23;;;;;;;2.53;1.40;;;15.40;36.80;;;;;;5000819;28;20586;-69
2023/04/28 03:35:48;;;;;;;2.40;1.43;;;15.40;37.40;;;;;;5011973;28;20224;-70
2023/04/28 03:38:14;;;;;;;2.30;1.30;;;15.60;37.60;;;;;;5011840;28;20193;-70
2023/04/28 03:40:40;;;;;;;2.23;1.23;;;15.80;37.40;;;;;;5007878;28;20183;-70
2023/04/28 03:43:06;;;;;;;2.20;1.20;;;16.10;37.20;;;;;;5008950;28;20189;-70
2023/04/28 03:45:31;;;;;;;2.50;1.40;;;16.30;36.90;;;;;;5013366;28;20655;-69
2023/04/28 03:47:57;;;;;;;2.60;1.60;;;16.30;37.30;;;;;;5011755;28;20541;-70
2023/04/28 03:50:23;;;;;;;2.30;1.20;;;16.50;36.90;;;;;;5012189;28;20183;-69
2023/04/28 03:52:48;;;;;;;2.40;1.50;;;16.40;37.90;;;;;;5010569;28;20290;-70
2023/04/28 03:55:14;;;;;;;2.13;1.13;;;16.30;38.20;;;;;;5006490;28;20658;-69
2023/04/28 03:57:39;;;;;;;2.80;1.60;;;16.40;38.30;;;;;;5009564;28;20236;-70
2023/04/28 04:00:06;;;;;;;2.40;1.40;;;16.50;37.70;;;;;;5011824;28;20173;-72
2023/04/28 04:02:32;;;;;;;4.80;2.80;;;16.60;37.60;;;;;;5011604;28;20188;-69
2023/04/28 04:04:57;;;;;;;2.97;1.50;;;16.60;38.50;;;;;;5004927;28;20809;-69
2023/04/28 04:07:23;;;;;;;2.40;1.33;;;16.70;38.60;;;;;;5011523;28;20212;-69
2023/04/28 04:09:49;;;;;;;2.23;1.20;;;16.80;37.50;;;;;;5011241;28;20235;-69
2023/04/28 04:12:14;;;;;;;2.30;1.30;;;16.70;38.80;;;;;;5009328;28;20466;-68
2023/04/28 04:14:40;;;;;;;2.80;1.60;;;16.40;39.10;;;;;;5009656;28;20887;-69
2023/04/28 04:17:06;;;;;;;2.30;1.40;;;16.30;39.70;;;;;;5010091;28;20213;-69
2023/04/28 04:19:32;;;;;;;2.50;1.60;;;16.00;38.40;;;;;;5011571;28;20287;-69
2023/04/28 04:21:57;;;;;;;5.03;1.87;;;15.80;39.90;;;;;;5008010;28;21023;-69
2023/04/28 04:24:23;;;;;;;2.50;1.50;;;15.90;39.10;;;;;;5010290;28;20672;-70
2023/04/28 04:26:49;;;;;;;2.50;1.40;;;16.10;39.60;;;;;;5015214;28;20203;-69
2023/04/28 04:29:14;;;;;;;2.70;1.60;;;16.20;39.70;;;;;;5014157;28;20195;-69
2023/04/28 04:31:40;;;;;;;2.30;1.40;;;16.30;39.70;;;;;;5012041;28;20204;-69
2023/04/28 04:34:06;;;;;;;2.87;1.77;;;16.30;39.20;;;;;;5006902;28;20235;-70
2023/04/28 04:36:32;;;;;;;2.60;1.53;;;16.50;39.70;;;;;;5015762;28;20191;-70
2023/04/28 04:38:57;;;;;;;3.03;1.80;;;16.60;40.40;;;;;;5014306;28;20431;-69
2023/04/28 04:41:25;;;;;;;3.50;1.90;;;16.60;41.00;;;;;;5011519;28;20957;-69
2023/04/28 04:43:50;;;;;;;2.87;1.70;;;16.50;42.60;;;;;;5012518;28;20180;-71
2023/04/28 04:46:16;;;;;;;3.07;1.80;;;16.40;43.10;;;;;;5008176;28;20781;-70
2023/04/28 04:48:42;;;;;;;2.87;1.40;;;16.40;43.90;;;;;;4996510;28;20671;-70
2023/04/28 04:51:08;;;;;;;2.50;1.40;;;16.30;45.30;;;;;;5015499;28;20184;-69
2023/04/28 04:53:33;;;;;;;2.50;1.53;;;16.40;45.30;;;;;;5018432;28;20721;-68
2023/04/28 04:55:59;;;;;;;2.30;1.40;;;16.40;45.80;;;;;;5022668;28;20181;-69
2023/04/28 04:58:25;;;;;;;2.60;1.60;;;16.30;45.60;;;;;;5020093;28;20204;-69
2023/04/28 05:00:51;;;;;;;2.50;1.60;;;16.30;46.10;;;;;;5017794;28;20423;-69
2023/04/28 05:03:16;;;;;;;2.50;1.40;;;16.40;46.40;;;;;;5018420;28;20779;-70
2023/04/28 05:05:43;;;;;;;2.73;1.43;;;16.40;46.10;;;;;;5037266;23;20172;-71
2023/04/28 05:08:10;;;;;;;2.10;1.10;;;16.50;46.50;;;;;;5029493;28;20168;-68
2023/04/28 05:10:36;;;;;;;3.23;2.07;;;16.50;47.00;;;;;;5034968;28;21136;-68
2023/04/28 05:13:01;;;;;;;2.20;1.30;;;16.60;47.10;;;;;;5032745;28;20462;-68
2023/04/28 05:15:27;;;;;;;2.10;1.20;;;16.50;48.50;;;;;;5031998;28;20233;-71
2023/04/28 05:17:53;;;;;;;2.20;1.60;;;16.60;48.10;;;;;;5031940;28;20180;-68
2023/04/28 05:20:19;;;;;;;2.50;1.80;;;16.50;49.00;;;;;;5033082;28;20181;-68
2023/04/28 05:22:45;;;;;;;1.90;1.20;;;16.30;49.30;;;;;;5032825;28;20191;-69
2023/04/28 05:25:10;;;;;;;2.13;1.40;;;16.10;53.40;;;;;;5030296;28;20436;-68
2023/04/28 05:27:38;;;;;;;2.10;1.27;;;16.30;51.80;;;;;;5030929;28;20223;-68
2023/04/28 05:30:05;;;;;;;1.93;1.30;;;16.40;51.70;;;;;;5030505;28;20181;-68
2023/04/28 05:32:30;;;;;;;2.00;1.30;;;16.70;49.40;;;;;;5028974;28;20616;-70
2023/04/28 05:34:56;;;;;;;1.80;1.10;;;16.80;49.50;;;;;;5030487;28;20573;-68
2023/04/28 05:37:21;;;;;;;2.30;1.50;;;16.80;49.80;;;;;;5030670;28;20215;-68
2023/04/28 05:39:47;;;;;;;2.30;1.30;;;17.00;48.90;;;;;;5032206;28;20180;-68
2023/04/28 05:42:13;;;;;;;1.93;1.30;;;17.00;49.40;;;;;;5029334;28;20188;-71
2023/04/28 05:44:38;;;;;;;1.90;1.27;;;16.70;48.80;;;;;;5031339;28;20195;-68
2023/04/28 05:47:04;;;;;;;2.00;1.30;;;16.70;50.00;;;;;;5032939;28;20227;-68
2023/04/28 05:49:30;;;;;;;1.80;1.20;;;16.80;49.50;;;;;;5033689;28;20184;-69
2023/04/28 05:51:55;;;;;;;2.20;1.50;;;16.70;49.10;;;;;;5033499;28;20270;-69
2023/04/28 05:54:21;;;;;;;2.07;1.30;;;16.70;51.30;;;;;;5030538;28;20665;-68
2023/04/28 05:56:46;;;;;;;2.00;1.20;;;16.80;50.50;;;;;;5033259;28;20188;-68
2023/04/28 05:59:12;;;;;;;2.10;1.40;;;17.00;49.80;;;;;;5032101;28;20181;-68
2023/04/28 06:01:38;;;;;;;2.00;1.37;;;17.00;50.30;;;;;;5032900;28;20269;-68
2023/04/28 06:04:03;;;;;;;2.43;1.30;;;16.90;50.00;;;;;;5031485;28;20191;-68
2023/04/28 06:06:29;;;;;;;1.90;1.20;;;16.50;50.60;;;;;;5031149;28;20220;-68
2023/04/28 06:08:55;;;;;;;2.97;1.57;;;16.50;52.20;;;;;;5031481;28;20184;-68
2023/04/28 06:11:21;;;;;;;2.00;1.30;;;16.60;51.30;;;;;;5031393;28;20215;-69
2023/04/28 06:13:50;;;;;;;1.90;1.20;;;16.70;49.90;;;;;;5031063;28;20181;-73
2023/04/28 06:16:16;;;;;;;2.27;1.50;;;16.70;48.60;;;;;;5029495;28;20542;-68
2023/04/28 06:18:42;;;;;;;1.90;1.20;;;16.80;48.90;;;;;;5024634;28;20525;-71
2023/04/28 06:21:08;;;;;;;2.20;1.47;;;16.80;49.10;;;;;;5032721;28;20852;-71
2023/04/28 06:23:34;;;;;;;1.90;1.20;;;17.10;48.40;;;;;;5032388;28;20512;-68
2023/04/28 06:26:00;;;;;;;2.20;1.50;;;17.20;48.00;;;;;;5030925;28;20452;-69
2023/04/28 06:28:25;;;;;;;2.37;1.60;;;17.20;48.00;;;;;;5031743;28;20443;-68
2023/04/28 06:30:51;;;;;;;1.90;1.20;;;16.90;48.50;;;;;;5032884;28;20233;-71
2023/04/28 06:33:16;;;;;;;2.00;1.40;;;16.80;50.20;;;;;;5028772;28;20204;-70
2023/04/28 06:35:42;;;;;;;1.97;1.30;;;17.00;48.60;;;;;;5032122;28;20263;-71
2023/04/28 06:38:08;;;;;;;1.90;1.30;;;17.10;49.00;;;;;;5032256;28;20183;-71
2023/04/28 06:40:33;;;;;;;2.77;1.57;;;17.40;47.00;;;;;;5029215;28;20260;-71
2023/04/28 06:42:59;;;;;;;2.90;1.80;;;17.40;46.40;;;;;;5032553;28;20263;-71
2023/04/28 06:45:24;;;;;;;1.90;1.27;;;17.50;47.20;;;;;;5033446;28;20168;-71
2023/04/28 06:47:51;;;;;;;1.97;1.40;;;17.30;49.00;;;;;;5033584;28;20202;-70
2023/04/28 06:50:16;;;;;;;1.90;1.30;;;17.10;49.00;;;;;;5032193;28;20199;-70
2023/04/28 06:52:42;;;;;;;1.93;1.40;;;17.10;50.00;;;;;;5017157;28;20470;-70
2023/04/28 06:55:08;;;;;;;2.53;1.70;;;17.00;49.40;;;;;;5032840;28;20184;-70
2023/04/28 06:57:34;;;;;;;2.00;1.50;;;17.20;49.40;;;;;;5032847;28;20204;-70
2023/04/28 07:00:00;;;;;;;1.90;1.30;;;17.20;50.40;;;;;;5033351;28;20414;-70
2023/04/28 07:02:26;;;;;;;6.73;2.67;;;17.30;48.60;;;;;;5031042;28;20452;-73
2023/04/28 07:04:51;;;;;;;1.80;1.20;;;17.10;50.30;;;;;;5027667;28;20190;-74
2023/04/28 07:07:17;;;;;;;2.00;1.30;;;17.40;49.10;;;;;;5029218;28;20230;-74
2023/04/28 07:09:43;;;;;;;2.10;1.47;;;17.20;47.90;;;;;;5031481;28;20252;-73
2023/04/28 07:12:08;;;;;;;1.80;1.17;;;17.00;49.90;;;;;;5030445;28;20663;-72
2023/04/28 07:14:34;;;;;;;1.90;1.30;;;17.20;49.50;;;;;;5026586;28;20253;-72
2023/04/28 07:17:00;;;;;;;2.00;1.40;;;17.40;49.80;;;;;;5019702;28;20196;-70
2023/04/28 07:19:25;;;;;;;2.10;1.50;;;17.40;49.90;;;;;;5029673;28;20229;-70
2023/04/28 07:21:51;;;;;;;1.80;1.20;;;17.50;50.10;;;;;;5029288;28;20188;-70
2023/04/28 07:24:16;;;;;;;2.20;1.40;;;17.50;48.80;;;;;;5026866;28;20708;-69
2023/04/28 07:26:42;;;;;;;2.00;1.30;;;17.70;48.90;;;;;;5023036;28;20209;-70
2023/04/28 07:29:09;;;;;;;1.93;1.40;;;17.40;49.20;;;;;;5028897;28;20267;-70
2023/04/28 07:31:34;;;;;;;2.10;1.30;;;17.20;51.80;;;;;;5028727;28;20216;-70
2023/04/28 07:34:00;;;;;;;1.80;1.53;;;17.10;51.70;;;;;;5027411;28;20452;-72
2023/04/28 07:36:26;;;;;;;1.87;1.30;;;17.30;52.80;;;;;;5028702;28;20210;-72
2023/04/28 07:38:52;;;;;;;1.93;1.40;;;17.30;53.40;;;;;;5029093;28;20178;-71
2023/04/28 07:41:17;;;;;;;1.80;1.20;;;17.40;54.20;;;;;;5026945;28;20177;-71
2023/04/28 07:43:43;;;;;;;2.00;1.30;;;17.80;52.40;;;;;;5029570;28;20423;-70
2023/04/28 07:46:10;;;;;;;2.00;1.50;;;17.80;52.60;;;;;;5025985;28;20211;-71
2023/04/28 07:48:36;;;;;;;1.90;1.30;;;17.80;51.30;;;;;;5027158;28;20174;-69
2023/04/28 07:51:01;;;;;;;1.80;1.20;;;17.70;49.50;;;;;;5029929;28;20802;-69
2023/04/28 07:53:27;;;;;;;1.80;1.20;;;18.00;49.90;;;;;;5027046;28;20545;-70
2023/04/28 07:55:53;;;;;;;1.80;1.20;;;18.00;50.20;;;;;;5028570;28;20285;-70
2023/04/28 07:58:19;;;;;;;1.80;1.20;;;18.10;50.60;;;;;;5028715;28;20612;-71
2023/04/28 08:00:45;;;;;;;1.80;1.20;;;18.20;49.50;;;;;;5029681;28;20477;-70
2023/04/28 08:03:10;;;;;;;1.80;1.20;;;18.20;50.90;;;;;;5029482;28;20188;-70
2023/04/28 08:05:38;;;;;;;1.90;1.40;;;18.30;51.00;;;;;;5030309;28;20217;-71
2023/04/28 08:08:04;;;;;;;1.80;1.20;;;18.30;50.10;;;;;;5028447;28;20177;-71
2023/04/28 08:10:30;;;;;;;1.90;1.27;;;18.40;50.30;;;;;;5028954;28;20965;-71
2023/04/28 08:12:55;;;;;;;4.63;1.50;;;18.40;50.90;;;;;;5021915;28;20243;-70
2023/04/28 08:15:21;;;;;;;1.83;1.30;;;18.40;50.90;;;;;;5030041;28;20189;-70
2023/04/28 08:17:46;;;;;;;1.90;1.30;;;18.40;50.40;;;;;;5030901;28;20705;-70
2023/04/28 08:20:14;;;;;;;2.77;2.23;;;18.30;50.90;;;;;;5030164;28;20607;-71
2023/04/28 08:22:40;;;;;;;2.47;1.77;;;18.30;51.70;;;;;;5022747;28;20660;-71
2023/04/28 08:25:07;;;;;;;3.10;1.83;;;18.30;52.10;;;;;;5026211;28;20460;-71
2023/04/28 08:27:33;;;;;;;2.20;1.40;;;18.40;52.10;;;;;;5026985;28;20490;-71
2023/04/28 08:29:58;;;;;;;2.20;1.43;;;18.40;52.10;;;;;;5023119;28;20812;-72
2023/04/28 08:32:24;;;;;;;1.93;1.30;;;18.30;52.40;;;;;;5020758;28;20476;-74
2023/04/28 08:34:50;;;;;;;1.70;1.10;;;18.40;51.70;;;;;;5028486;28;20719;-70
2023/04/28 08:37:15;;;;;;;2.93;1.50;;;18.60;51.40;;;;;;5029927;28;20233;-71
2023/04/28 08:39:41;;;;;;;2.00;1.40;;;18.60;51.70;;;;;;5030165;28;20214;-71
2023/04/28 08:42:07;;;;;;;1.90;1.30;;;18.60;50.80;;;;;;5028745;28;20694;-74
2023/04/28 08:44:38;;;;;;;1.93;1.30;;;18.70;50.80;;;;;;5029148;28;20658;-71
2023/04/28 08:47:12;;;;;;;2.20;1.50;;;18.70;51.70;;;;;;5030986;28;20198;-71
2023/04/28 08:49:38;;;;;;;1.90;1.20;;;18.60;51.50;;;;;;5029226;28;20431;-72
2023/04/28 08:52:11;;;;;;;1.97;1.20;;;18.60;51.00;;;;;;5030301;28;20482;-71
2023/04/28 08:54:39;;;;;;;2.00;1.43;;;18.50;51.50;;;;;;5030229;28;20760;-71
2023/04/28 08:57:08;;;;;;;2.83;1.70;;;18.70;51.70;;;;;;5027798;28;20450;-71
2023/04/28 08:59:34;;;;;;;2.63;1.87;;;18.30;51.10;;;;;;5023720;28;20446;-71
2023/04/28 09:01:59;;;;;;;1.90;1.33;;;17.90;55.00;;;;;;5028486;28;20480;-71
2023/04/28 09:04:25;;;;;;;1.90;1.30;;;17.90;54.70;;;;;;5023772;28;20181;-70
2023/04/28 09:06:50;;;;;;;2.10;1.30;;;18.30;54.90;;;;;;5029334;28;20305;-70
2023/04/28 09:09:29;;;;;;;2.43;1.83;;;18.60;52.40;;;;;;5027885;28;20260;-78
2023/04/28 09:11:59;;;;;;;1.93;1.30;;;18.60;52.80;;;;;;5021841;28;20222;-70
2023/04/28 09:14:27;;;;;;;3.00;2.00;;;18.50;53.20;;;;;;5031198;28;20551;-71
2023/04/28 09:16:52;;;;;;;2.10;1.50;;;18.30;55.70;;;;;;5032510;28;20458;-70
2023/04/28 09:19:18;;;;;;;1.90;1.30;;;18.70;55.10;;;;;;5033008;28;20447;-71
2023/04/28 09:22:04;;;;;;;2.23;1.47;;;18.70;53.90;;;;;;5032311;28;20186;-70
2023/04/28 09:24:39;;;;;;;2.23;1.60;;;18.50;56.50;;;;;;5032026;28;20440;-70
2023/04/28 09:27:14;;;;;;;2.10;1.40;;;18.40;55.40;;;;;;5027638;28;20449;-71
2023/04/28 09:29:51;;;;;;;2.47;1.43;;;18.60;56.20;;;;;;5033054;28;20757;-71
2023/04/28 09:32:20;;;;;;;1.80;1.20;;;18.90;52.80;;;;;;5032501;28;20501;-71
2023/04/28 09:34:51;;;;;;;2.00;1.30;;;18.80;54.50;;;;;;5034022;28;20411;-71
2023/04/28 09:37:22;;;;;;;1.80;1.20;;;18.60;54.30;;;;;;5033584;28;20534;-71
2023/04/28 09:39:49;;;;;;;1.80;1.20;;;18.40;54.90;;;;;;5032228;28;20440;-71
2023/04/28 09:42:38;;;;;;;1.80;1.20;;;18.10;58.00;;;;;;5032951;28;20404;-71
2023/04/28 09:45:06;;;;;;;1.80;1.20;;;18.10;59.80;;;;;;5031547;28;20437;-72
2023/04/28 09:47:34;;;;;;;1.80;1.20;;;18.50;57.90;;;;;;5032958;28;20449;-71
2023/04/28 09:50:03;;;;;;;1.77;1.20;;;18.50;57.80;;;;;;5025382;28;20488;-70
2023/04/28 09:52:29;;;;;;;2.00;1.33;;;18.60;57.10;;;;;;5031695;28;20473;-70
2023/04/28 09:54:55;;;;;;;1.80;1.10;;;18.80;56.70;;;;;;5033833;28;20758;-71
2023/04/28 09:57:22;;;;;;;1.70;1.00;;;19.00;56.90;;;;;;5030738;28;20201;-71
2023/04/28 09:59:50;;;;;;;1.80;1.17;;;19.60;52.90;;;;;;5029333;28;20439;-71
2023/04/28 10:02:17;;;;;;;1.90;1.30;;;18.80;54.50;;;;;;5030743;28;20430;-70
2023/04/28 10:04:47;;;;;;;1.80;1.20;;;18.40;56.30;;;;;;5027241;28;20423;-71
2023/04/28 10:07:15;;;;;;;1.80;1.10;;;18.40;59.60;;;;;;5030620;28;20471;-70
2023/04/28 10:10:00;;;;;;;1.80;1.20;;;18.50;59.30;;;;;;5028983;28;20451;-71
2023/04/28 10:12:26;;;;;;;2.00;1.20;;;19.00;56.90;;;;;;5024707;28;20611;-71
2023/04/28 10:14:56;;;;;;;1.80;1.20;;;19.80;53.40;;;;;;5030598;28;20438;-71
2023/04/28 10:17:24;;;;;;;2.00;1.40;;;20.30;48.60;;;;;;5030715;28;20453;-71
2023/04/28 10:19:52;;;;;;;1.90;1.30;;;20.50;48.60;;;;;;5030119;28;20931;-70
2023/04/28 10:22:46;;;;;;;2.00;1.30;;;20.30;51.60;;;;;;5025889;28;20434;-71
2023/04/28 10:25:12;;;;;;;2.00;1.20;;;20.80;46.10;;;;;;5026875;28;20431;-71
2023/04/28 10:27:43;;;;;;;1.90;1.20;;;21.20;45.90;;;;;;5030223;28;20504;-71
2023/04/28 10:30:29;;;;;;;2.00;1.30;;;21.10;45.60;;;;;;5031389;28;20427;-71
2023/04/28 10:33:22;;;;;;;2.37;1.33;;;20.60;47.80;;;;;;5027031;28;20571;-70
2023/04/28 10:35:48;;;;;;;2.30;1.40;;;21.10;46.00;;;;;;5025899;28;20459;-70
2023/04/28 10:38:20;;;;;;;2.43;1.47;;;21.00;47.80;;;;;;5028511;28;20440;-70
2023/04/28 10:40:50;;;;;;;2.20;1.20;;;21.30;45.70;;;;;;5025808;28;20247;-70
2023/04/28 10:43:28;;;;;;;2.20;1.20;;;21.10;45.30;;;;;;5031038;28;20428;-70
2023/04/28 10:45:54;;;;;;;2.20;1.30;;;21.50;44.00;;;;;;5026612;28;20963;-70
2023/04/28 10:48:46;;;;;;;2.30;1.30;;;20.70;46.60;;;;;;5032964;28;20407;-70
2023/04/28 10:51:14;;;;;;;3.00;1.20;;;20.30;49.40;;;;;;5032911;28;20421;-70
2023/04/28 10:53:49;;;;;;;2.20;1.40;;;20.40;48.60;;;;;;5030103;28;20797;-70
2023/04/28 10:56:26;;;;;;;2.13;1.40;;;20.70;46.30;;;;;;5032503;28;20488;-70
2023/04/28 10:58:55;;;;;;;2.10;1.20;;;20.70;45.20;;;;;;5013264;28;20451;-70
2023/04/28 11:01:22;;;;;;;2.40;1.33;;;20.50;46.70;;;;;;5013026;28;20941;-70
2023/04/28 11:03:59;;;;;;;2.30;1.30;;;20.80;45.20;;;;;;5012447;28;20793;-70
2023/04/28 11:06:34;;;;;;;2.17;1.30;;;20.90;44.50;;;;;;5024933;28;20462;-70
2023/04/28 11:09:12;;;;;;;2.20;1.20;;;20.80;45.80;;;;;;5055412;22;20498;-71
2023/04/28 11:11:39;;;;;;;2.30;1.27;;;20.80;47.00;;;;;;5011360;28;20468;-70
2023/04/28 11:14:34;;;;;;;2.40;1.20;;;21.20;43.30;;;;;;5011425;28;20467;-70
2023/04/28 11:17:01;;;;;;;2.33;1.20;;;21.20;44.10;;;;;;5010924;28;20437;-70
2023/04/28 11:19:31;;;;;;;2.40;1.17;;;20.90;45.10;;;;;;5012096;28;20854;-70
2023/04/28 11:21:58;;;;;;;2.50;1.30;;;21.90;43.40;;;;;;5012429;28;20411;-70
2023/04/28 11:24:27;;;;;;;2.53;1.10;;;22.00;40.80;;;;;;5011680;28;20408;-70
2023/04/28 11:26:53;;;;;;;2.50;1.20;;;21.90;40.20;;;;;;5010912;28;20439;-70
2023/04/28 11:29:29;;;;;;;2.60;1.20;;;22.10;40.20;;;;;;5011610;28;20439;-69
2023/04/28 11:31:55;;;;;;;2.70;1.20;;;21.70;39.40;;;;;;5011875;28;20186;-70
2023/04/28 11:34:22;;;;;;;3.07;1.57;;;21.30;39.20;;;;;;5010997;28;20430;-70
2023/04/28 11:36:48;;;;;;;2.47;1.30;;;21.30;40.80;;;;;;5011173;28;20222;-71
2023/04/28 11:39:14;;;;;;;2.43;1.20;;;21.30;40.60;;;;;;5016111;28;20468;-70
2023/04/28 11:41:43;;;;;;;2.40;1.13;;;21.30;39.90;;;;;;5012039;28;20178;-70
2023/04/28 11:44:15;;;;;;;2.30;1.10;;;21.30;39.80;;;;;;5010092;28;21032;-70
2023/04/28 11:47:01;;;;;;;2.57;1.30;;;20.90;41.30;;;;;;5010698;28;20436;-70
2023/04/28 11:49:29;;;;;;;2.30;1.17;;;20.70;41.00;;;;;;5011306;28;20448;-70
2023/04/28 11:52:06;;;;;;;2.43;1.23;;;20.50;41.60;;;;;;5011843;28;20459;-70
2023/04/28 11:54:32;;;;;;;2.60;1.40;;;20.60;42.20;;;;;;5010829;28;20825;-70
2023/04/28 11:56:59;;;;;;;2.40;1.30;;;21.10;42.70;;;;;;5011544;28;20921;-70
2023/04/28 11:59:27;;;;;;;2.40;1.20;;;21.40;40.90;;;;;;5010857;28;20515;-70
2023/04/28 12:02:01;;;;;;;2.50;1.20;;;21.30;39.30;;;;;;5011978;28;20417;-70
2023/04/28 12:04:40;;;;;;;2.60;1.10;;;21.90;39.80;;;;;;5011050;28;20493;-71
2023/04/28 12:07:13;;;;;;;2.60;1.20;;;22.60;35.40;;;;;;5011620;28;20835;-70
2023/04/28 12:09:45;;;;;;;2.50;1.20;;;22.20;36.80;;;;;;5009270;28;20494;-70
2023/04/28 12:12:13;;;;;;;2.40;1.20;;;21.90;37.50;;;;;;5010427;28;20457;-71
2023/04/28 12:14:58;;;;;;;2.43;1.20;;;21.30;38.70;;;;;;5010190;28;20833;-70
2023/04/28 12:17:30;;;;;;;2.40;1.20;;;21.70;37.80;;;;;;5011432;28;20436;-70
2023/04/28 12:19:57;;;;;;;2.30;1.10;;;21.90;38.10;;;;;;5011686;28;20438;-71
2023/04/28 12:22:24;;;;;;;2.40;1.30;;;22.40;36.40;;;;;;5010431;28;20509;-69
2023/04/28 12:25:07;;;;;;;2.40;1.23;;;22.40;36.10;;;;;;5010963;28;20463;-70
2023/04/28 12:27:38;;;;;;;2.30;1.13;;;22.50;35.50;;;;;;5011595;28;20440;-70
2023/04/28 12:30:19;;;;;;;2.40;1.13;;;22.00;37.50;;;;;;5011447;28;20396;-70
2023/04/28 12:32:45;;;;;;;2.47;1.20;;;22.00;36.30;;;;;;5009420;28;20550;-70
2023/04/28 12:35:11;;;;;;;2.40;1.20;;;21.60;37.10;;;;;;5010567;28;20428;-70
2023/04/28 12:37:37;;;;;;;2.60;1.40;;;21.10;38.50;;;;;;5010920;28;20808;-70
2023/04/28 12:40:04;;;;;;;2.30;1.20;;;21.20;38.80;;;;;;5011408;28;20173;-70
2023/04/28 12:42:30;;;;;;;2.60;1.40;;;20.80;38.50;;;;;;5010693;28;20960;-70
2023/04/28 12:44:55;;;;;;;2.40;1.30;;;20.50;40.80;;;;;;5008714;28;20428;-70
2023/04/28 12:47:21;;;;;;;2.30;1.10;;;20.60;40.00;;;;;;5012810;28;20189;-70
2023/04/28 12:49:49;;;;;;;2.30;1.20;;;20.70;40.30;;;;;;5015295;28;20249;-70